createdAt,value
2023-05-10T00:02:22.253Z,46.49
2023-05-10T00:07:46.021Z,46.37
2023-05-10T00:13:07.886Z,46.07
2023-05-10T00:18:29.847Z,46.24
2023-05-10T00:23:51.697Z,46.56
2023-05-10T00:29:13.434Z,46.14
2023-05-10T00:34:35.177Z,46.60
2023-05-10T00:39:57.008Z,46.17
2023-05-10T00:45:18.932Z,46.31
2023-05-10T00:50:41.322Z,46.48
2023-05-10T00:56:04.807Z,46.52
2023-05-10T01:01:26.655Z,46.17
2023-05-10T01:06:48.495Z,46.17
2023-05-10T01:12:10.547Z,46.16
2023-05-10T01:17:32.705Z,46.14
2023-05-10T01:23:32.086Z,46.22
2023-05-10T01:29:09.077Z,46.50
2023-05-10T01:34:39.155Z,46.45
2023-05-10T01:40:19.951Z,46.50
2023-05-10T01:45:50.868Z,46.08
2023-05-10T01:51:14.080Z,46.47
2023-05-10T01:56:41.442Z,46.29
2023-05-10T02:02:06.003Z,46.53
2023-05-10T02:07:29.779Z,46.56
2023-05-10T02:12:54.741Z,46.15
2023-05-10T02:18:18.147Z,46.27
2023-05-10T02:23:40.929Z,46.24
2023-05-10T02:29:07.969Z,46.25
2023-05-10T02:34:31.144Z,46.04
2023-05-10T02:39:56.405Z,46.35
2023-05-10T02:45:21.916Z,46.17
2023-05-10T02:50:45.782Z,46.28
2023-05-10T02:56:15.801Z,46.23
2023-05-10T03:01:37.685Z,46.11
2023-05-10T03:07:00.169Z,46.01
2023-05-10T03:12:55.147Z,46.24
2023-05-10T03:18:37.679Z,46.46
2023-05-10T03:24:10.265Z,46.17
2023-05-10T03:29:33.210Z,46.24
2023-05-10T03:34:55.062Z,46.50
2023-05-10T03:40:17.404Z,45.95
2023-05-10T03:45:39.403Z,46.16
2023-05-10T03:51:01.351Z,45.92
2023-05-10T03:56:23.266Z,46.15
2023-05-10T04:01:45.089Z,46.33
2023-05-10T04:07:06.867Z,46.31
2023-05-10T04:12:28.642Z,46.16
2023-05-10T04:17:51.611Z,45.82
2023-05-10T04:23:15.259Z,46.24
2023-05-10T04:28:37.143Z,46.11
2023-05-10T04:33:58.931Z,46.05
2023-05-10T04:39:20.746Z,45.99
2023-05-10T04:44:42.636Z,45.82
2023-05-10T04:50:07.711Z,46.02
2023-05-10T04:55:29.538Z,45.80
2023-05-10T05:00:51.340Z,46.22
2023-05-10T05:06:13.098Z,46.10
2023-05-10T05:11:34.913Z,46.11
2023-05-10T05:16:57.099Z,45.74
2023-05-10T05:22:20.586Z,45.55
2023-05-10T05:27:43.182Z,45.83
2023-05-10T05:33:05.399Z,45.56
2023-05-10T05:38:27.388Z,45.86
2023-05-10T05:43:49.210Z,45.57
2023-05-10T05:49:11.236Z,45.44
2023-05-10T05:54:34.038Z,45.49
2023-05-10T05:59:56.016Z,45.49
2023-05-10T06:05:18.232Z,45.59
2023-05-10T06:10:40.250Z,45.72
2023-05-10T06:16:03.672Z,45.56
2023-05-10T06:21:25.715Z,45.80
2023-05-10T06:26:47.586Z,45.56
2023-05-10T06:32:09.400Z,45.62
2023-05-10T06:37:31.180Z,45.49
2023-05-10T06:42:53.012Z,45.70
2023-05-10T06:48:14.897Z,45.75
2023-05-10T06:53:36.918Z,45.51
2023-05-10T06:58:59.032Z,45.81
2023-05-10T07:04:20.922Z,45.40
2023-05-10T07:09:43.319Z,45.47
2023-05-10T07:15:06.152Z,45.74
2023-05-10T07:20:27.997Z,45.79
2023-05-10T07:25:51.061Z,45.84
2023-05-10T07:31:12.832Z,45.46
2023-05-10T07:36:34.697Z,45.71
2023-05-10T07:41:57.013Z,45.80
2023-05-10T07:47:18.830Z,45.75
2023-05-10T07:52:40.876Z,45.57
2023-05-10T07:58:02.776Z,45.70
2023-05-10T08:03:24.644Z,45.24
2023-05-10T08:08:51.699Z,45.04
2023-05-10T08:14:13.640Z,44.66
2023-05-10T08:19:35.528Z,44.50
2023-05-10T08:24:57.319Z,44.77
2023-05-10T08:30:19.328Z,44.74
2023-05-10T08:35:41.224Z,44.46
2023-05-10T08:41:04.357Z,44.09
2023-05-10T08:46:28.781Z,44.20
2023-05-10T08:51:56.426Z,44.18
2023-05-10T08:57:18.821Z,44.44
2023-05-10T09:02:41.500Z,44.49
2023-05-10T09:08:03.390Z,44.06
2023-05-10T09:13:26.217Z,44.55
2023-05-10T09:18:48.197Z,44.48
2023-05-10T09:24:10.432Z,44.56
2023-05-10T09:29:43.300Z,44.10
2023-05-10T09:35:12.460Z,44.41
2023-05-10T09:40:35.048Z,44.28
2023-05-10T09:45:57.048Z,44.18
2023-05-10T09:51:22.968Z,44.05
2023-05-10T09:56:44.936Z,43.85
2023-05-10T10:02:07.753Z,43.97
2023-05-10T10:07:30.366Z,43.74
2023-05-10T10:12:52.892Z,44.00
2023-05-10T10:18:16.750Z,44.04
2023-05-10T10:23:38.764Z,44.14
2023-05-10T10:29:12.569Z,44.39
2023-05-10T10:34:34.917Z,44.28
2023-05-10T10:39:56.846Z,44.24
2023-05-10T10:45:19.055Z,44.20
2023-05-10T10:50:47.928Z,44.25
2023-05-10T10:56:12.739Z,44.46
2023-05-10T11:01:38.541Z,44.25
2023-05-10T11:07:18.742Z,44.25
2023-05-10T11:13:02.076Z,44.70
2023-05-10T11:18:28.771Z,44.34
2023-05-10T11:23:53.273Z,44.39
2023-05-10T11:29:15.138Z,44.35
2023-05-10T11:34:36.998Z,44.41
2023-05-10T11:39:58.898Z,44.76
2023-05-10T11:45:20.835Z,44.68
2023-05-10T11:50:42.691Z,44.27
2023-05-10T11:56:08.672Z,44.50
2023-05-10T12:01:30.778Z,44.42
2023-05-10T12:06:52.617Z,44.14
2023-05-10T12:12:18.573Z,44.04
2023-05-10T12:17:43.458Z,43.89
2023-05-10T12:23:06.743Z,44.01
2023-05-10T12:28:31.964Z,43.70
2023-05-10T12:33:53.739Z,43.83
2023-05-10T12:39:15.663Z,43.75
2023-05-10T12:44:37.540Z,43.44
2023-05-10T12:50:02.351Z,43.68
2023-05-10T12:55:24.184Z,43.76
2023-05-10T13:00:46.208Z,43.63
2023-05-10T13:06:08.045Z,43.63
2023-05-10T13:11:29.920Z,43.72
2023-05-10T13:16:51.781Z,43.47
2023-05-10T13:22:13.592Z,43.62
2023-05-10T13:27:35.482Z,43.49
2023-05-10T13:32:57.351Z,43.44
2023-05-10T13:38:21.727Z,43.11
2023-05-10T13:43:44.314Z,43.33
2023-05-10T13:49:06.284Z,43.36
2023-05-10T13:54:30.685Z,42.98
2023-05-10T13:59:54.772Z,43.33
2023-05-10T14:05:19.994Z,43.20
2023-05-10T14:10:46.114Z,43.42
2023-05-10T14:16:08.041Z,43.01
2023-05-10T14:21:33.034Z,43.07
2023-05-10T14:26:55.276Z,43.09
2023-05-10T14:32:17.134Z,43.58
2023-05-10T14:37:38.974Z,43.40
2023-05-10T14:43:00.919Z,43.38
2023-05-10T14:48:22.778Z,43.43
2023-05-10T14:53:44.539Z,43.32
2023-05-10T14:59:06.376Z,43.64
2023-05-10T15:04:29.025Z,43.38
2023-05-10T15:09:53.117Z,43.28
2023-05-10T15:15:15.233Z,43.30
2023-05-10T15:20:37.235Z,43.46
2023-05-10T15:25:58.968Z,43.44
2023-05-10T15:31:20.889Z,43.26
2023-05-10T15:36:43.097Z,43.46
2023-05-10T15:42:05.356Z,43.65
2023-05-10T15:47:28.945Z,43.45
2023-05-10T15:52:50.750Z,43.37
2023-05-10T15:58:12.558Z,43.38
2023-05-10T16:03:37.278Z,43.63
2023-05-10T16:08:59.436Z,43.76
2023-05-10T16:14:24.951Z,43.56
2023-05-10T16:19:47.671Z,43.54
2023-05-10T16:25:11.523Z,43.45
2023-05-10T16:30:34.570Z,43.54
2023-05-10T16:35:56.597Z,43.48
2023-05-10T16:41:18.378Z,43.42
2023-05-10T16:46:40.980Z,43.83
2023-05-10T16:52:03.540Z,43.39
2023-05-10T16:57:25.939Z,43.80
2023-05-10T17:02:47.917Z,43.76
2023-05-10T17:08:10.472Z,43.83
2023-05-10T17:13:32.410Z,43.40
2023-05-10T17:18:54.284Z,43.49
2023-05-10T17:24:16.200Z,43.42
2023-05-10T17:29:37.990Z,43.92
2023-05-10T17:34:59.795Z,43.90
2023-05-10T17:40:21.945Z,43.99
2023-05-10T17:45:45.068Z,43.78
2023-05-10T17:51:06.973Z,43.57
2023-05-10T17:56:29.153Z,43.67
2023-05-10T18:01:50.983Z,43.96
2023-05-10T18:07:12.904Z,44.12
2023-05-10T18:12:34.658Z,44.00
2023-05-10T18:17:57.036Z,44.02
2023-05-10T18:23:18.940Z,43.92
2023-05-10T18:28:40.771Z,43.86
2023-05-10T18:34:02.653Z,43.95
2023-05-10T18:39:25.207Z,44.05
2023-05-10T18:44:47.025Z,43.73
2023-05-10T18:50:09.109Z,43.58
2023-05-10T18:55:31.026Z,43.38
2023-05-10T19:00:53.788Z,43.55
2023-05-10T19:06:15.621Z,43.55
2023-05-10T19:11:37.495Z,43.29
2023-05-10T19:16:59.340Z,43.18
2023-05-10T19:22:35.300Z,43.09
2023-05-10T19:28:03.807Z,43.34
2023-05-10T19:33:25.768Z,43.43
2023-05-10T19:38:47.692Z,43.55
2023-05-10T19:44:09.538Z,44.30
2023-05-10T19:49:31.659Z,44.51
2023-05-10T19:54:53.542Z,45.03
2023-05-10T20:00:15.626Z,45.42
2023-05-10T20:05:37.432Z,45.87
2023-05-10T20:11:00.911Z,46.03
2023-05-10T20:16:25.076Z,46.40
2023-05-10T20:21:48.330Z,46.33
2023-05-10T20:27:10.152Z,46.88
2023-05-10T20:32:32.559Z,47.30
2023-05-10T20:37:54.962Z,47.03
2023-05-10T20:43:17.315Z,47.25
2023-05-10T20:48:39.181Z,47.72
2023-05-10T20:54:04.660Z,47.52
2023-05-10T20:59:26.319Z,47.77
2023-05-10T21:04:48.111Z,47.61
2023-05-10T21:10:11.906Z,47.46
2023-05-10T21:15:33.756Z,47.79
2023-05-10T21:20:55.535Z,47.75
2023-05-10T21:26:17.507Z,47.87
2023-05-10T21:31:39.304Z,47.93
2023-05-10T21:37:01.709Z,47.99
2023-05-10T21:42:23.672Z,47.98
2023-05-10T21:47:45.925Z,47.88
2023-05-10T21:53:07.755Z,47.94
2023-05-10T21:58:29.496Z,48.37
2023-05-10T22:03:51.262Z,48.47
2023-05-10T22:09:13.077Z,48.31
2023-05-10T22:14:35.050Z,48.54
2023-05-10T22:19:57.000Z,48.27
2023-05-10T22:25:18.848Z,48.34
2023-05-10T22:30:42.504Z,48.27
2023-05-10T22:36:05.428Z,48.28
2023-05-10T22:41:27.219Z,47.78
2023-05-10T22:46:49.103Z,48.03
2023-05-10T22:52:11.147Z,47.83
2023-05-10T22:57:33.709Z,47.76
2023-05-10T23:02:55.605Z,47.66
2023-05-10T23:08:17.438Z,47.40
2023-05-10T23:13:39.181Z,47.58
2023-05-10T23:19:01.040Z,47.80
2023-05-10T23:24:23.154Z,47.80
2023-05-10T23:29:44.948Z,47.85
2023-05-10T23:35:07.309Z,47.86
2023-05-10T23:40:29.137Z,47.45
2023-05-10T23:45:58.141Z,47.46
2023-05-10T23:51:20.126Z,47.48
2023-05-10T23:56:41.933Z,47.46
